sensor_id;sensor_type;location;lat;lon;timestamp;P1;durP1;ratioP1;P2;durP2;ratioP2
19579;SDS011;9936;51.040;13.918;2023-02-28T00:03:07;12.07;;;4.97;;
19579;SDS011;9936;51.040;13.918;2023-02-28T00:06:53;9.87;;;4.60;;
19579;SDS011;9936;51.040;13.918;2023-02-28T00:10:38;7.83;;;4.10;;
19579;SDS011;9936;51.040;13.918;2023-02-28T00:14:24;9.43;;;5.00;;
19579;SDS011;9936;51.040;13.918;2023-02-28T00:18:10;8.83;;;5.13;;
19579;SDS011;9936;51.040;13.918;2023-02-28T00:21:56;9.77;;;5.10;;
19579;SDS011;9936;51.040;13.918;2023-02-28T00:25:42;9.87;;;5.20;;
19579;SDS011;9936;51.040;13.918;2023-02-28T00:29:27;8.77;;;5.40;;
19579;SDS011;9936;51.040;13.918;2023-02-28T00:33:13;9.47;;;5.20;;
19579;SDS011;9936;51.040;13.918;2023-02-28T00:36:59;10.30;;;5.53;;
19579;SDS011;9936;51.040;13.918;2023-02-28T00:40:44;10.40;;;6.17;;
19579;SDS011;9936;51.040;13.918;2023-02-28T00:44:30;10.07;;;5.73;;
19579;SDS011;9936;51.040;13.918;2023-02-28T00:48:16;12.90;;;6.30;;
19579;SDS011;9936;51.040;13.918;2023-02-28T00:52:02;10.10;;;5.50;;
19579;SDS011;9936;51.040;13.918;2023-02-28T00:55:48;10.30;;;5.73;;
19579;SDS011;9936;51.040;13.918;2023-02-28T00:59:35;8.80;;;5.13;;
19579;SDS011;9936;51.040;13.918;2023-02-28T01:03:21;11.07;;;5.77;;
19579;SDS011;9936;51.040;13.918;2023-02-28T01:07:07;9.77;;;5.73;;
19579;SDS011;9936;51.040;13.918;2023-02-28T01:10:53;11.53;;;6.07;;
19579;SDS011;9936;51.040;13.918;2023-02-28T01:14:39;11.50;;;6.20;;
19579;SDS011;9936;51.040;13.918;2023-02-28T01:18:25;11.33;;;6.17;;
19579;SDS011;9936;51.040;13.918;2023-02-28T01:22:10;12.07;;;5.93;;
19579;SDS011;9936;51.040;13.918;2023-02-28T01:25:56;10.10;;;5.73;;
19579;SDS011;9936;51.040;13.918;2023-02-28T01:29:42;10.93;;;6.17;;
19579;SDS011;9936;51.040;13.918;2023-02-28T01:33:27;11.77;;;6.23;;
19579;SDS011;9936;51.040;13.918;2023-02-28T01:37:13;15.97;;;6.20;;
19579;SDS011;9936;51.040;13.918;2023-02-28T01:41:00;10.53;;;5.60;;
19579;SDS011;9936;51.040;13.918;2023-02-28T01:48:55;13.47;;;5.93;;
19579;SDS011;9936;51.040;13.918;2023-02-28T01:52:47;9.97;;;5.37;;
19579;SDS011;9936;51.040;13.918;2023-02-28T01:56:34;10.33;;;5.53;;
19579;SDS011;9936;51.040;13.918;2023-02-28T02:00:22;9.07;;;5.73;;
19579;SDS011;9936;51.040;13.918;2023-02-28T02:04:11;9.50;;;5.40;;
19579;SDS011;9936;51.040;13.918;2023-02-28T02:07:59;9.93;;;5.50;;
19579;SDS011;9936;51.040;13.918;2023-02-28T02:11:48;11.07;;;5.90;;
19579;SDS011;9936;51.040;13.918;2023-02-28T02:27:33;11.07;;;5.73;;
19579;SDS011;9936;51.040;13.918;2023-02-28T02:31:52;9.47;;;6.00;;
19579;SDS011;9936;51.040;13.918;2023-02-28T02:35:54;12.60;;;6.70;;
19579;SDS011;9936;51.040;13.918;2023-02-28T02:48:05;12.67;;;6.77;;
19579;SDS011;9936;51.040;13.918;2023-02-28T02:51:53;10.50;;;6.27;;
19579;SDS011;9936;51.040;13.918;2023-02-28T02:55:43;11.77;;;6.87;;
19579;SDS011;9936;51.040;13.918;2023-02-28T02:59:32;11.13;;;6.20;;
19579;SDS011;9936;51.040;13.918;2023-02-28T03:03:25;9.77;;;6.47;;
19579;SDS011;9936;51.040;13.918;2023-02-28T03:07:16;10.63;;;6.70;;
19579;SDS011;9936;51.040;13.918;2023-02-28T03:11:05;12.47;;;7.00;;
19579;SDS011;9936;51.040;13.918;2023-02-28T03:19:28;20.00;;;8.43;;
19579;SDS011;9936;51.040;13.918;2023-02-28T03:23:21;12.97;;;7.23;;
19579;SDS011;9936;51.040;13.918;2023-02-28T03:31:19;12.27;;;7.37;;
19579;SDS011;9936;51.040;13.918;2023-02-28T03:35:32;14.70;;;7.73;;
19579;SDS011;9936;51.040;13.918;2023-02-28T03:39:35;13.27;;;7.57;;
19579;SDS011;9936;51.040;13.918;2023-02-28T03:43:32;12.53;;;7.37;;
19579;SDS011;9936;51.040;13.918;2023-02-28T03:47:21;12.97;;;7.30;;
19579;SDS011;9936;51.040;13.918;2023-02-28T03:51:27;12.47;;;7.33;;
19579;SDS011;9936;51.040;13.918;2023-02-28T03:55:14;14.10;;;7.80;;
19579;SDS011;9936;51.040;13.918;2023-02-28T04:03:24;12.83;;;7.70;;
19579;SDS011;9936;51.040;13.918;2023-02-28T04:07:10;11.17;;;7.60;;
19579;SDS011;9936;51.040;13.918;2023-02-28T04:11:18;12.10;;;7.40;;
19579;SDS011;9936;51.040;13.918;2023-02-28T04:15:07;12.90;;;7.57;;
19579;SDS011;9936;51.040;13.918;2023-02-28T04:18:53;13.60;;;7.77;;
19579;SDS011;9936;51.040;13.918;2023-02-28T04:22:48;15.03;;;7.77;;
19579;SDS011;9936;51.040;13.918;2023-02-28T04:26:34;13.17;;;8.53;;
19579;SDS011;9936;51.040;13.918;2023-02-28T04:30:21;15.30;;;8.10;;
19579;SDS011;9936;51.040;13.918;2023-02-28T04:34:08;13.60;;;8.03;;
19579;SDS011;9936;51.040;13.918;2023-02-28T04:37:53;14.83;;;8.43;;
19579;SDS011;9936;51.040;13.918;2023-02-28T04:41:39;14.53;;;8.20;;
19579;SDS011;9936;51.040;13.918;2023-02-28T04:45:25;13.73;;;8.90;;
19579;SDS011;9936;51.040;13.918;2023-02-28T04:49:11;13.77;;;8.20;;
19579;SDS011;9936;51.040;13.918;2023-02-28T04:52:57;16.03;;;9.43;;
19579;SDS011;9936;51.040;13.918;2023-02-28T04:56:42;19.63;;;9.37;;
19579;SDS011;9936;51.040;13.918;2023-02-28T05:00:31;14.33;;;8.07;;
19579;SDS011;9936;51.040;13.918;2023-02-28T05:04:17;16.57;;;8.47;;
19579;SDS011;9936;51.040;13.918;2023-02-28T05:08:03;14.37;;;8.50;;
19579;SDS011;9936;51.040;13.918;2023-02-28T05:11:50;18.90;;;10.07;;
19579;SDS011;9936;51.040;13.918;2023-02-28T05:19:26;16.33;;;9.57;;
19579;SDS011;9936;51.040;13.918;2023-02-28T05:23:12;18.37;;;9.70;;
19579;SDS011;9936;51.040;13.918;2023-02-28T05:26:58;16.40;;;8.90;;
19579;SDS011;9936;51.040;13.918;2023-02-28T05:30:44;17.90;;;10.10;;
19579;SDS011;9936;51.040;13.918;2023-02-28T05:34:29;18.23;;;10.13;;
19579;SDS011;9936;51.040;13.918;2023-02-28T05:38:15;16.03;;;9.73;;
19579;SDS011;9936;51.040;13.918;2023-02-28T05:42:02;19.13;;;10.13;;
19579;SDS011;9936;51.040;13.918;2023-02-28T05:45:47;21.17;;;10.20;;
19579;SDS011;9936;51.040;13.918;2023-02-28T05:49:33;17.83;;;9.73;;
19579;SDS011;9936;51.040;13.918;2023-02-28T05:53:20;19.30;;;10.37;;
19579;SDS011;9936;51.040;13.918;2023-02-28T05:57:06;17.63;;;10.13;;
19579;SDS011;9936;51.040;13.918;2023-02-28T06:00:57;20.33;;;10.90;;
19579;SDS011;9936;51.040;13.918;2023-02-28T06:04:43;16.87;;;10.40;;
19579;SDS011;9936;51.040;13.918;2023-02-28T06:08:30;17.33;;;10.17;;
19579;SDS011;9936;51.040;13.918;2023-02-28T06:12:15;22.27;;;10.97;;
19579;SDS011;9936;51.040;13.918;2023-02-28T06:16:01;19.63;;;10.13;;
19579;SDS011;9936;51.040;13.918;2023-02-28T06:19:47;19.60;;;10.83;;
19579;SDS011;9936;51.040;13.918;2023-02-28T06:23:33;18.87;;;10.80;;
19579;SDS011;9936;51.040;13.918;2023-02-28T06:27:20;20.87;;;11.27;;
19579;SDS011;9936;51.040;13.918;2023-02-28T06:31:11;16.73;;;10.23;;
19579;SDS011;9936;51.040;13.918;2023-02-28T06:34:58;18.27;;;10.40;;
19579;SDS011;9936;51.040;13.918;2023-02-28T06:38:44;17.27;;;10.20;;
19579;SDS011;9936;51.040;13.918;2023-02-28T06:42:30;19.90;;;10.43;;
19579;SDS011;9936;51.040;13.918;2023-02-28T06:46:15;20.10;;;10.90;;
19579;SDS011;9936;51.040;13.918;2023-02-28T06:50:01;25.17;;;12.70;;
19579;SDS011;9936;51.040;13.918;2023-02-28T06:53:47;27.70;;;12.80;;
19579;SDS011;9936;51.040;13.918;2023-02-28T06:57:34;19.33;;;10.37;;
19579;SDS011;9936;51.040;13.918;2023-02-28T07:01:20;18.17;;;10.03;;
19579;SDS011;9936;51.040;13.918;2023-02-28T07:05:08;21.10;;;9.63;;
19579;SDS011;9936;51.040;13.918;2023-02-28T07:08:54;19.87;;;10.47;;
19579;SDS011;9936;51.040;13.918;2023-02-28T07:12:40;18.53;;;9.73;;
19579;SDS011;9936;51.040;13.918;2023-02-28T07:16:25;16.10;;;9.10;;
19579;SDS011;9936;51.040;13.918;2023-02-28T07:20:11;15.60;;;9.27;;
19579;SDS011;9936;51.040;13.918;2023-02-28T07:23:57;21.30;;;10.27;;
19579;SDS011;9936;51.040;13.918;2023-02-28T07:27:43;19.83;;;10.23;;
19579;SDS011;9936;51.040;13.918;2023-02-28T07:31:29;16.97;;;9.97;;
19579;SDS011;9936;51.040;13.918;2023-02-28T07:35:14;23.67;;;11.13;;
19579;SDS011;9936;51.040;13.918;2023-02-28T07:39:00;28.17;;;12.40;;
19579;SDS011;9936;51.040;13.918;2023-02-28T07:42:45;26.57;;;11.83;;
19579;SDS011;9936;51.040;13.918;2023-02-28T07:46:31;24.07;;;11.67;;
19579;SDS011;9936;51.040;13.918;2023-02-28T07:50:20;21.83;;;11.50;;
19579;SDS011;9936;51.040;13.918;2023-02-28T07:54:06;23.80;;;12.77;;
19579;SDS011;9936;51.040;13.918;2023-02-28T07:57:57;24.87;;;13.13;;
19579;SDS011;9936;51.040;13.918;2023-02-28T08:01:43;23.97;;;13.37;;
19579;SDS011;9936;51.040;13.918;2023-02-28T08:05:29;22.27;;;12.67;;
19579;SDS011;9936;51.040;13.918;2023-02-28T08:09:15;20.37;;;11.27;;
19579;SDS011;9936;51.040;13.918;2023-02-28T08:13:01;23.33;;;11.77;;
19579;SDS011;9936;51.040;13.918;2023-02-28T08:16:47;22.47;;;11.50;;
19579;SDS011;9936;51.040;13.918;2023-02-28T08:20:32;20.23;;;11.00;;
19579;SDS011;9936;51.040;13.918;2023-02-28T08:24:18;21.80;;;11.00;;
19579;SDS011;9936;51.040;13.918;2023-02-28T08:28:03;29.17;;;13.77;;
19579;SDS011;9936;51.040;13.918;2023-02-28T08:35:44;27.33;;;13.93;;
19579;SDS011;9936;51.040;13.918;2023-02-28T08:39:30;25.10;;;12.83;;
19579;SDS011;9936;51.040;13.918;2023-02-28T08:43:15;25.13;;;12.23;;
19579;SDS011;9936;51.040;13.918;2023-02-28T08:47:01;27.33;;;12.80;;
19579;SDS011;9936;51.040;13.918;2023-02-28T08:51:06;22.17;;;11.50;;
19579;SDS011;9936;51.040;13.918;2023-02-28T08:54:54;21.63;;;10.83;;
19579;SDS011;9936;51.040;13.918;2023-02-28T08:58:40;23.07;;;11.10;;
19579;SDS011;9936;51.040;13.918;2023-02-28T09:02:25;22.27;;;11.33;;
19579;SDS011;9936;51.040;13.918;2023-02-28T09:06:11;20.50;;;10.73;;
19579;SDS011;9936;51.040;13.918;2023-02-28T09:09:58;25.27;;;11.90;;
19579;SDS011;9936;51.040;13.918;2023-02-28T09:13:44;24.37;;;11.63;;
19579;SDS011;9936;51.040;13.918;2023-02-28T09:17:30;23.67;;;13.07;;
19579;SDS011;9936;51.040;13.918;2023-02-28T09:21:16;25.90;;;11.33;;
19579;SDS011;9936;51.040;13.918;2023-02-28T09:25:03;28.23;;;13.27;;
19579;SDS011;9936;51.040;13.918;2023-02-28T09:28:49;23.27;;;11.03;;
19579;SDS011;9936;51.040;13.918;2023-02-28T09:32:36;22.00;;;10.83;;
19579;SDS011;9936;51.040;13.918;2023-02-28T09:36:22;17.40;;;10.07;;
19579;SDS011;9936;51.040;13.918;2023-02-28T09:40:09;19.37;;;10.10;;
19579;SDS011;9936;51.040;13.918;2023-02-28T09:44:02;20.20;;;9.73;;
19579;SDS011;9936;51.040;13.918;2023-02-28T09:47:49;22.67;;;10.30;;
19579;SDS011;9936;51.040;13.918;2023-02-28T09:55:36;19.10;;;9.87;;
19579;SDS011;9936;51.040;13.918;2023-02-28T10:03:40;47.87;;;18.23;;
19579;SDS011;9936;51.040;13.918;2023-02-28T10:11:44;21.30;;;11.30;;
19579;SDS011;9936;51.040;13.918;2023-02-28T10:15:32;18.33;;;10.27;;
19579;SDS011;9936;51.040;13.918;2023-02-28T10:23:45;19.50;;;9.50;;
19579;SDS011;9936;51.040;13.918;2023-02-28T10:27:33;15.87;;;9.10;;
19579;SDS011;9936;51.040;13.918;2023-02-28T10:31:19;19.37;;;9.87;;
19579;SDS011;9936;51.040;13.918;2023-02-28T10:35:21;22.80;;;11.17;;
19579;SDS011;9936;51.040;13.918;2023-02-28T10:43:30;18.17;;;9.97;;
19579;SDS011;9936;51.040;13.918;2023-02-28T10:47:16;18.60;;;9.30;;
19579;SDS011;9936;51.040;13.918;2023-02-28T10:51:03;22.00;;;10.27;;
19579;SDS011;9936;51.040;13.918;2023-02-28T11:03:23;16.77;;;9.53;;
19579;SDS011;9936;51.040;13.918;2023-02-28T11:07:21;19.13;;;10.03;;
19579;SDS011;9936;51.040;13.918;2023-02-28T11:11:07;15.63;;;9.63;;
19579;SDS011;9936;51.040;13.918;2023-02-28T11:15:03;14.57;;;8.47;;
19579;SDS011;9936;51.040;13.918;2023-02-28T11:19:15;17.03;;;9.37;;
19579;SDS011;9936;51.040;13.918;2023-02-28T11:23:12;15.60;;;8.80;;
19579;SDS011;9936;51.040;13.918;2023-02-28T11:26:59;14.90;;;9.07;;
19579;SDS011;9936;51.040;13.918;2023-02-28T11:30:44;16.03;;;9.07;;
19579;SDS011;9936;51.040;13.918;2023-02-28T11:34:31;16.70;;;9.63;;
19579;SDS011;9936;51.040;13.918;2023-02-28T11:38:17;17.27;;;9.43;;
19579;SDS011;9936;51.040;13.918;2023-02-28T11:42:10;15.50;;;9.03;;
19579;SDS011;9936;51.040;13.918;2023-02-28T11:58:55;17.23;;;9.23;;
19579;SDS011;9936;51.040;13.918;2023-02-28T12:11:17;15.70;;;9.87;;
19579;SDS011;9936;51.040;13.918;2023-02-28T12:27:37;24.50;;;12.37;;
19579;SDS011;9936;51.040;13.918;2023-02-28T12:31:34;27.53;;;14.53;;
19579;SDS011;9936;51.040;13.918;2023-02-28T12:35:57;21.80;;;12.33;;
19579;SDS011;9936;51.040;13.918;2023-02-28T12:39:36;16.90;;;11.00;;
19579;SDS011;9936;51.040;13.918;2023-02-28T12:43:37;18.20;;;10.50;;
19579;SDS011;9936;51.040;13.918;2023-02-28T12:47:27;20.80;;;11.10;;
19579;SDS011;9936;51.040;13.918;2023-02-28T12:51:13;18.80;;;10.67;;
19579;SDS011;9936;51.040;13.918;2023-02-28T13:11:48;20.27;;;11.37;;
19579;SDS011;9936;51.040;13.918;2023-02-28T13:15:36;19.40;;;11.13;;
19579;SDS011;9936;51.040;13.918;2023-02-28T13:19:26;20.00;;;11.07;;
19579;SDS011;9936;51.040;13.918;2023-02-28T13:27:43;20.47;;;11.27;;
19579;SDS011;9936;51.040;13.918;2023-02-28T13:31:31;27.07;;;12.57;;
19579;SDS011;9936;51.040;13.918;2023-02-28T13:35:34;18.90;;;11.40;;
19579;SDS011;9936;51.040;13.918;2023-02-28T13:39:45;21.03;;;11.83;;
19579;SDS011;9936;51.040;13.918;2023-02-28T13:48:20;20.23;;;11.33;;
19579;SDS011;9936;51.040;13.918;2023-02-28T13:52:18;19.77;;;11.17;;
19579;SDS011;9936;51.040;13.918;2023-02-28T13:56:18;20.33;;;12.13;;
19579;SDS011;9936;51.040;13.918;2023-02-28T14:04:21;23.50;;;12.27;;
19579;SDS011;9936;51.040;13.918;2023-02-28T14:08:32;21.70;;;12.80;;
19579;SDS011;9936;51.040;13.918;2023-02-28T14:16:45;23.40;;;12.83;;
19579;SDS011;9936;51.040;13.918;2023-02-28T14:29:42;21.53;;;11.67;;
19579;SDS011;9936;51.040;13.918;2023-02-28T14:33:40;24.50;;;12.93;;
19579;SDS011;9936;51.040;13.918;2023-02-28T14:37:37;26.53;;;14.50;;
19579;SDS011;9936;51.040;13.918;2023-02-28T14:41:31;20.70;;;12.40;;
19579;SDS011;9936;51.040;13.918;2023-02-28T14:45:23;31.63;;;17.70;;
19579;SDS011;9936;51.040;13.918;2023-02-28T14:49:15;136.90;;;89.73;;
19579;SDS011;9936;51.040;13.918;2023-02-28T14:53:15;214.50;;;116.63;;
19579;SDS011;9936;51.040;13.918;2023-02-28T14:57:06;390.43;;;181.00;;
19579;SDS011;9936;51.040;13.918;2023-02-28T15:01:05;347.63;;;176.73;;
19579;SDS011;9936;51.040;13.918;2023-02-28T15:04:56;301.30;;;157.63;;
19579;SDS011;9936;51.040;13.918;2023-02-28T15:08:44;89.90;;;55.03;;
19579;SDS011;9936;51.040;13.918;2023-02-28T15:16:41;35.70;;;20.67;;
19579;SDS011;9936;51.040;13.918;2023-02-28T15:20:29;32.70;;;20.70;;
19579;SDS011;9936;51.040;13.918;2023-02-28T15:24:27;34.00;;;20.80;;
19579;SDS011;9936;51.040;13.918;2023-02-28T15:28:22;24.10;;;13.40;;
19579;SDS011;9936;51.040;13.918;2023-02-28T15:32:20;25.07;;;14.50;;
19579;SDS011;9936;51.040;13.918;2023-02-28T15:36:15;24.40;;;14.70;;
19579;SDS011;9936;51.040;13.918;2023-02-28T15:48:14;23.40;;;12.83;;
19579;SDS011;9936;51.040;13.918;2023-02-28T15:52:03;24.77;;;13.67;;
19579;SDS011;9936;51.040;13.918;2023-02-28T15:55:58;23.33;;;13.10;;
19579;SDS011;9936;51.040;13.918;2023-02-28T15:59:54;23.40;;;12.70;;
19579;SDS011;9936;51.040;13.918;2023-02-28T16:03:46;21.90;;;12.70;;
19579;SDS011;9936;51.040;13.918;2023-02-28T16:07:41;23.17;;;12.57;;
19579;SDS011;9936;51.040;13.918;2023-02-28T16:11:28;24.53;;;12.17;;
19579;SDS011;9936;51.040;13.918;2023-02-28T16:15:19;22.37;;;12.47;;
19579;SDS011;9936;51.040;13.918;2023-02-28T16:19:11;23.73;;;12.33;;
19579;SDS011;9936;51.040;13.918;2023-02-28T16:22:56;25.07;;;12.17;;
19579;SDS011;9936;51.040;13.918;2023-02-28T16:26:46;24.67;;;12.93;;
19579;SDS011;9936;51.040;13.918;2023-02-28T16:30:33;21.93;;;12.30;;
19579;SDS011;9936;51.040;13.918;2023-02-28T16:34:19;24.17;;;12.87;;
19579;SDS011;9936;51.040;13.918;2023-02-28T16:38:05;22.63;;;12.17;;
19579;SDS011;9936;51.040;13.918;2023-02-28T16:41:51;19.03;;;11.37;;
19579;SDS011;9936;51.040;13.918;2023-02-28T16:45:37;24.83;;;12.40;;
19579;SDS011;9936;51.040;13.918;2023-02-28T16:49:22;22.50;;;12.23;;
19579;SDS011;9936;51.040;13.918;2023-02-28T16:53:08;21.87;;;11.87;;
19579;SDS011;9936;51.040;13.918;2023-02-28T16:56:54;20.17;;;11.50;;
19579;SDS011;9936;51.040;13.918;2023-02-28T17:00:39;20.33;;;11.13;;
19579;SDS011;9936;51.040;13.918;2023-02-28T17:04:26;19.83;;;11.87;;
19579;SDS011;9936;51.040;13.918;2023-02-28T17:08:12;20.57;;;12.33;;
19579;SDS011;9936;51.040;13.918;2023-02-28T17:11:58;20.57;;;12.57;;
19579;SDS011;9936;51.040;13.918;2023-02-28T17:15:44;25.53;;;14.17;;
19579;SDS011;9936;51.040;13.918;2023-02-28T17:19:32;25.17;;;14.17;;
19579;SDS011;9936;51.040;13.918;2023-02-28T17:23:19;25.87;;;14.23;;
19579;SDS011;9936;51.040;13.918;2023-02-28T17:27:11;23.20;;;13.67;;
19579;SDS011;9936;51.040;13.918;2023-02-28T17:30:57;31.20;;;20.20;;
19579;SDS011;9936;51.040;13.918;2023-02-28T17:34:43;23.53;;;14.43;;
19579;SDS011;9936;51.040;13.918;2023-02-28T17:38:30;25.83;;;14.30;;
19579;SDS011;9936;51.040;13.918;2023-02-28T17:42:16;26.60;;;14.60;;
19579;SDS011;9936;51.040;13.918;2023-02-28T17:46:01;25.00;;;13.70;;
19579;SDS011;9936;51.040;13.918;2023-02-28T17:49:49;25.07;;;12.60;;
19579;SDS011;9936;51.040;13.918;2023-02-28T17:53:35;21.87;;;12.07;;
19579;SDS011;9936;51.040;13.918;2023-02-28T17:57:21;21.43;;;12.43;;
19579;SDS011;9936;51.040;13.918;2023-02-28T18:01:08;22.23;;;11.27;;
19579;SDS011;9936;51.040;13.918;2023-02-28T18:04:55;23.80;;;12.53;;
19579;SDS011;9936;51.040;13.918;2023-02-28T18:08:42;26.27;;;12.20;;
19579;SDS011;9936;51.040;13.918;2023-02-28T18:12:30;20.60;;;12.57;;
19579;SDS011;9936;51.040;13.918;2023-02-28T18:16:16;22.70;;;11.37;;
19579;SDS011;9936;51.040;13.918;2023-02-28T18:20:03;21.23;;;10.90;;
19579;SDS011;9936;51.040;13.918;2023-02-28T18:23:52;20.77;;;11.60;;
19579;SDS011;9936;51.040;13.918;2023-02-28T18:27:37;22.07;;;11.00;;
19579;SDS011;9936;51.040;13.918;2023-02-28T18:31:23;22.03;;;12.20;;
19579;SDS011;9936;51.040;13.918;2023-02-28T18:35:09;27.43;;;12.07;;
19579;SDS011;9936;51.040;13.918;2023-02-28T18:38:54;21.77;;;11.60;;
19579;SDS011;9936;51.040;13.918;2023-02-28T18:42:40;21.40;;;11.47;;
19579;SDS011;9936;51.040;13.918;2023-02-28T18:46:26;18.47;;;11.30;;
19579;SDS011;9936;51.040;13.918;2023-02-28T18:50:12;18.73;;;10.83;;
19579;SDS011;9936;51.040;13.918;2023-02-28T18:53:58;20.03;;;11.20;;
19579;SDS011;9936;51.040;13.918;2023-02-28T18:57:45;18.57;;;10.60;;
19579;SDS011;9936;51.040;13.918;2023-02-28T19:01:31;19.37;;;10.73;;
19579;SDS011;9936;51.040;13.918;2023-02-28T19:05:18;21.77;;;11.50;;
19579;SDS011;9936;51.040;13.918;2023-02-28T19:09:04;20.93;;;11.67;;
19579;SDS011;9936;51.040;13.918;2023-02-28T19:12:50;18.90;;;10.47;;
19579;SDS011;9936;51.040;13.918;2023-02-28T19:16:36;22.53;;;12.43;;
19579;SDS011;9936;51.040;13.918;2023-02-28T19:20:21;20.03;;;11.53;;
19579;SDS011;9936;51.040;13.918;2023-02-28T19:24:07;21.47;;;12.50;;
19579;SDS011;9936;51.040;13.918;2023-02-28T19:27:53;20.30;;;11.93;;
19579;SDS011;9936;51.040;13.918;2023-02-28T19:31:40;22.83;;;12.93;;
19579;SDS011;9936;51.040;13.918;2023-02-28T19:35:26;21.73;;;12.77;;
19579;SDS011;9936;51.040;13.918;2023-02-28T19:39:11;22.13;;;12.23;;
19579;SDS011;9936;51.040;13.918;2023-02-28T19:42:57;24.03;;;13.43;;
19579;SDS011;9936;51.040;13.918;2023-02-28T19:46:45;23.37;;;13.40;;
19579;SDS011;9936;51.040;13.918;2023-02-28T19:50:31;26.23;;;13.03;;
19579;SDS011;9936;51.040;13.918;2023-02-28T19:54:17;23.37;;;12.23;;
19579;SDS011;9936;51.040;13.918;2023-02-28T19:58:02;25.07;;;12.73;;
19579;SDS011;9936;51.040;13.918;2023-02-28T20:01:48;21.93;;;11.73;;
19579;SDS011;9936;51.040;13.918;2023-02-28T20:05:34;22.90;;;11.80;;
19579;SDS011;9936;51.040;13.918;2023-02-28T20:09:29;21.63;;;11.70;;
19579;SDS011;9936;51.040;13.918;2023-02-28T20:13:34;21.90;;;11.73;;
19579;SDS011;9936;51.040;13.918;2023-02-28T20:17:20;22.77;;;12.00;;
19579;SDS011;9936;51.040;13.918;2023-02-28T20:21:07;23.97;;;12.53;;
19579;SDS011;9936;51.040;13.918;2023-02-28T20:24:53;20.90;;;12.40;;
19579;SDS011;9936;51.040;13.918;2023-02-28T20:28:40;20.07;;;12.47;;
19579;SDS011;9936;51.040;13.918;2023-02-28T20:32:41;23.50;;;12.87;;
19579;SDS011;9936;51.040;13.918;2023-02-28T20:36:27;24.97;;;13.33;;
19579;SDS011;9936;51.040;13.918;2023-02-28T20:44:29;25.70;;;13.47;;
19579;SDS011;9936;51.040;13.918;2023-02-28T20:48:14;24.00;;;13.17;;
19579;SDS011;9936;51.040;13.918;2023-02-28T20:52:00;25.10;;;13.30;;
19579;SDS011;9936;51.040;13.918;2023-02-28T20:55:56;23.43;;;12.53;;
19579;SDS011;9936;51.040;13.918;2023-02-28T20:59:46;26.10;;;13.10;;
19579;SDS011;9936;51.040;13.918;2023-02-28T21:03:32;25.27;;;13.70;;
19579;SDS011;9936;51.040;13.918;2023-02-28T21:07:19;25.00;;;14.17;;
19579;SDS011;9936;51.040;13.918;2023-02-28T21:15:16;23.70;;;13.03;;
19579;SDS011;9936;51.040;13.918;2023-02-28T21:22:53;24.83;;;13.90;;
19579;SDS011;9936;51.040;13.918;2023-02-28T21:26:39;27.63;;;13.57;;
19579;SDS011;9936;51.040;13.918;2023-02-28T21:30:25;24.17;;;13.17;;
19579;SDS011;9936;51.040;13.918;2023-02-28T21:34:11;21.33;;;11.97;;
19579;SDS011;9936;51.040;13.918;2023-02-28T21:37:57;23.23;;;13.53;;
19579;SDS011;9936;51.040;13.918;2023-02-28T21:41:43;26.47;;;14.30;;
19579;SDS011;9936;51.040;13.918;2023-02-28T21:45:29;27.80;;;15.07;;
19579;SDS011;9936;51.040;13.918;2023-02-28T21:49:15;30.30;;;15.23;;
19579;SDS011;9936;51.040;13.918;2023-02-28T21:53:01;26.27;;;14.23;;
19579;SDS011;9936;51.040;13.918;2023-02-28T21:56:47;26.87;;;13.97;;
19579;SDS011;9936;51.040;13.918;2023-02-28T22:00:34;24.43;;;13.83;;
19579;SDS011;9936;51.040;13.918;2023-02-28T22:04:20;22.23;;;12.00;;
19579;SDS011;9936;51.040;13.918;2023-02-28T22:08:06;24.83;;;13.07;;
19579;SDS011;9936;51.040;13.918;2023-02-28T22:11:51;26.50;;;12.90;;
19579;SDS011;9936;51.040;13.918;2023-02-28T22:15:37;25.83;;;12.30;;
19579;SDS011;9936;51.040;13.918;2023-02-28T22:19:23;23.47;;;12.53;;
19579;SDS011;9936;51.040;13.918;2023-02-28T22:23:09;25.63;;;13.00;;
19579;SDS011;9936;51.040;13.918;2023-02-28T22:26:54;22.97;;;12.33;;
19579;SDS011;9936;51.040;13.918;2023-02-28T22:30:55;21.73;;;12.50;;
19579;SDS011;9936;51.040;13.918;2023-02-28T22:34:42;29.27;;;13.63;;
19579;SDS011;9936;51.040;13.918;2023-02-28T22:38:27;26.23;;;14.10;;
19579;SDS011;9936;51.040;13.918;2023-02-28T22:42:13;26.77;;;13.63;;
19579;SDS011;9936;51.040;13.918;2023-02-28T22:46:00;26.47;;;14.07;;
19579;SDS011;9936;51.040;13.918;2023-02-28T22:49:47;26.27;;;14.53;;
19579;SDS011;9936;51.040;13.918;2023-02-28T22:53:33;24.37;;;14.63;;
19579;SDS011;9936;51.040;13.918;2023-02-28T22:57:19;28.37;;;15.33;;
19579;SDS011;9936;51.040;13.918;2023-02-28T23:04:59;30.30;;;16.60;;
19579;SDS011;9936;51.040;13.918;2023-02-28T23:08:45;27.23;;;15.97;;
19579;SDS011;9936;51.040;13.918;2023-02-28T23:12:31;32.10;;;16.90;;
19579;SDS011;9936;51.040;13.918;2023-02-28T23:16:17;31.93;;;16.60;;
19579;SDS011;9936;51.040;13.918;2023-02-28T23:20:02;27.80;;;15.67;;
19579;SDS011;9936;51.040;13.918;2023-02-28T23:23:48;31.07;;;16.67;;
19579;SDS011;9936;51.040;13.918;2023-02-28T23:27:34;33.40;;;16.90;;
19579;SDS011;9936;51.040;13.918;2023-02-28T23:31:20;30.73;;;16.97;;
19579;SDS011;9936;51.040;13.918;2023-02-28T23:35:06;32.30;;;17.47;;
19579;SDS011;9936;51.040;13.918;2023-02-28T23:38:52;34.20;;;17.17;;
19579;SDS011;9936;51.040;13.918;2023-02-28T23:42:38;38.17;;;18.50;;
19579;SDS011;9936;51.040;13.918;2023-02-28T23:46:24;32.87;;;18.07;;
19579;SDS011;9936;51.040;13.918;2023-02-28T23:50:11;33.93;;;17.63;;
19579;SDS011;9936;51.040;13.918;2023-02-28T23:53:56;31.33;;;17.37;;
19579;SDS011;9936;51.040;13.918;2023-02-28T23:57:42;33.87;;;17.67;;
